Kirishima Maru No.5 — JD2506 — position and weather

sailwx.info

Track history (hours):
 
Tides and Currents Weather Stations Pressure Air Temp Water Temp Dewpoint Dewpoint Depression Visibility Wind Speed Wind Dir Waves Ship Positions

Kirishima Maru No.5

Last reported at 2014-Oct-20 19:17 UTC. Time now 2014-Oct-21 08:55 UTC.
Position N 34°01' E 134°59'.

Length 105 m; draft 5.4 m.

Type: Tanker. MMSI: 431000338.

Date/timePositionNaut miles runAvg speedWind from/ knotsBaromVisibWave heightAir tempDewpointWater temp
2014-Oct-20 19:17N 34°01' E 134°59'1115.0
2014-Oct-20 18:33N 34°12' E 134°58'1615.5
2014-Oct-20 17:33N 34°27' E 135°01'10 9.3
2014-Oct-20 16:29N 34°35' E 134°54'  
2014-Oct-18 05:24N 34°36' E 134°54'911.1
2014-Oct-18 04:33N 34°33' E 135°05'1814.2
2014-Oct-18 03:18N 34°16' E 134°59'1114.0
2014-Oct-18 02:33N 34°05' E 134°59'  
2014-Oct-15 03:33N 35°05' E 139°44'1413.5
2014-Oct-15 02:33N 35°18' E 139°44'1313.1
2014-Oct-15 01:33N 35°30' E 139°51'4 1.4
2014-Oct-14 22:33N 35°34' E 139°52'0 0.0
2014-Oct-14 21:33N 35°34' E 139°52'0 0.0
2014-Oct-14 20:27N 35°34' E 139°52'0 0.0
2014-Oct-14 13:24N 35°34' E 139°52'0 0.0
2014-Oct-12 20:32N 35°34' E 139°52'0 0.0
2014-Oct-12 19:23N 35°34' E 139°52'0 0.0
2014-Oct-12 18:29N 35°34' E 139°52'0 0.1
2014-Oct-12 17:32N 35°34' E 139°52'0 0.0
2014-Oct-12 16:32N 35°34' E 139°52'0 0.0
2014-Oct-12 15:23N 35°34' E 139°52'0 0.0
2014-Oct-12 14:32N 35°34' E 139°52'0 0.0
2014-Oct-12 13:32N 35°34' E 139°52'0 0.0
2014-Oct-12 12:32N 35°34' E 139°52'0 0.0
2014-Oct-12 11:32N 35°34' E 139°52'0 0.0
2014-Oct-12 10:32N 35°34' E 139°52'0 0.0
2014-Oct-12 09:26N 35°34' E 139°52'0 0.0
2014-Oct-12 08:26N 35°34' E 139°52'0 0.1
2014-Oct-12 07:32N 35°34' E 139°52'0 0.0
2014-Oct-12 06:32N 35°34' E 139°52'0 0.0
2014-Oct-12 05:32N 35°34' E 139°52'0 0.0
2014-Oct-12 04:26N 35°34' E 139°52'0 0.0
2014-Oct-12 03:32N 35°34' E 139°52'0 0.0
2014-Oct-12 02:32N 35°34' E 139°52'0 0.0
2014-Oct-12 01:32N 35°34' E 139°52'4 4.4
2014-Oct-12 00:33N 35°30' E 139°49'3 2.1
2014-Oct-11 23:17N 35°31' E 139°46'0 0.0
2014-Oct-11 22:32N 35°31' E 139°46'0 0.0
2014-Oct-11 21:32N 35°31' E 139°46'0 0.0
2014-Oct-11 20:32N 35°31' E 139°46'0 0.0
2014-Oct-11 19:26N 35°31' E 139°46'0 0.0
2014-Oct-11 18:32N 35°31' E 139°46'0 0.0
2014-Oct-11 17:32N 35°31' E 139°46'0 0.0
2014-Oct-11 16:23N 35°31' E 139°46'0 0.0
2014-Oct-11 15:14N 35°31' E 139°46'0 0.0
2014-Oct-11 13:32N 35°31' E 139°46'0 0.0
2014-Oct-11 12:14N 35°31' E 139°46'0 0.0
2014-Oct-11 11:32N 35°31' E 139°46'0 0.0
2014-Oct-11 10:32N 35°31' E 139°46'0 0.0
2014-Oct-11 09:32N 35°31' E 139°46'0 0.0
2014-Oct-11 08:32N 35°31' E 139°46'0 0.0
2014-Oct-11 07:20N 35°31' E 139°46'0 0.0
2014-Oct-11 06:34N 35°31' E 139°46'0 0.1
2014-Oct-11 05:33N 35°31' E 139°46'4 3.9
2014-Oct-11 04:34N 35°27' E 139°45'6 6.3
2014-Oct-11 03:34N 35°21' E 139°45'1211.5
2014-Oct-11 02:33N 35°09' E 139°46'  
Track history (hours):
 
Tides and Currents Weather Stations Pressure Air Temp Water Temp Dewpoint Dewpoint Depression Visibility Wind Speed Wind Dir Waves Ship Positions

Kirishima Maru No.5

Last reported at 2014-Oct-20 19:17 UTC. Time now 2014-Oct-21 08:55 UTC.
Position N 34°01' E 134°59'.

Length 105 m; draft 5.4 m.

Type: Tanker. MMSI: 431000338.

Date/timePositionNaut miles runAvg speedWind from/ knotsBaromVisibWave heightAir tempDewpointWater temp
2014-Oct-20 19:17N 34°01' E 134°59'1115.0
2014-Oct-20 18:33N 34°12' E 134°58'1615.5
2014-Oct-20 17:33N 34°27' E 135°01'10 9.3
2014-Oct-20 16:29N 34°35' E 134°54'  
2014-Oct-18 05:24N 34°36' E 134°54'911.1
2014-Oct-18 04:33N 34°33' E 135°05'1814.2
2014-Oct-18 03:18N 34°16' E 134°59'1114.0
2014-Oct-18 02:33N 34°05' E 134°59'  
2014-Oct-15 03:33N 35°05' E 139°44'1413.5
2014-Oct-15 02:33N 35°18' E 139°44'1313.1
2014-Oct-15 01:33N 35°30' E 139°51'4 1.4
2014-Oct-14 22:33N 35°34' E 139°52'0 0.0
2014-Oct-14 21:33N 35°34' E 139°52'0 0.0
2014-Oct-14 20:27N 35°34' E 139°52'0 0.0
2014-Oct-14 13:24N 35°34' E 139°52'0 0.0
2014-Oct-12 20:32N 35°34' E 139°52'0 0.0
2014-Oct-12 19:23N 35°34' E 139°52'0 0.0
2014-Oct-12 18:29N 35°34' E 139°52'0 0.1
2014-Oct-12 17:32N 35°34' E 139°52'0 0.0
2014-Oct-12 16:32N 35°34' E 139°52'0 0.0
2014-Oct-12 15:23N 35°34' E 139°52'0 0.0
2014-Oct-12 14:32N 35°34' E 139°52'0 0.0
2014-Oct-12 13:32N 35°34' E 139°52'0 0.0
2014-Oct-12 12:32N 35°34' E 139°52'0 0.0
2014-Oct-12 11:32N 35°34' E 139°52'0 0.0
2014-Oct-12 10:32N 35°34' E 139°52'0 0.0
2014-Oct-12 09:26N 35°34' E 139°52'0 0.0
2014-Oct-12 08:26N 35°34' E 139°52'0 0.1
2014-Oct-12 07:32N 35°34' E 139°52'0 0.0
2014-Oct-12 06:32N 35°34' E 139°52'0 0.0
2014-Oct-12 05:32N 35°34' E 139°52'0 0.0
2014-Oct-12 04:26N 35°34' E 139°52'0 0.0
2014-Oct-12 03:32N 35°34' E 139°52'0 0.0
2014-Oct-12 02:32N 35°34' E 139°52'0 0.0
2014-Oct-12 01:32N 35°34' E 139°52'4 4.4
2014-Oct-12 00:33N 35°30' E 139°49'3 2.1
2014-Oct-11 23:17N 35°31' E 139°46'0 0.0
2014-Oct-11 22:32N 35°31' E 139°46'0 0.0
2014-Oct-11 21:32N 35°31' E 139°46'0 0.0
2014-Oct-11 20:32N 35°31' E 139°46'0 0.0
2014-Oct-11 19:26N 35°31' E 139°46'0 0.0
2014-Oct-11 18:32N 35°31' E 139°46'0 0.0
2014-Oct-11 17:32N 35°31' E 139°46'0 0.0
2014-Oct-11 16:23N 35°31' E 139°46'0 0.0
2014-Oct-11 15:14N 35°31' E 139°46'0 0.0
2014-Oct-11 13:32N 35°31' E 139°46'0 0.0
2014-Oct-11 12:14N 35°31' E 139°46'0 0.0
2014-Oct-11 11:32N 35°31' E 139°46'0 0.0
2014-Oct-11 10:32N 35°31' E 139°46'0 0.0
2014-Oct-11 09:32N 35°31' E 139°46'0 0.0
2014-Oct-11 08:32N 35°31' E 139°46'0 0.0
2014-Oct-11 07:20N 35°31' E 139°46'0 0.0
2014-Oct-11 06:34N 35°31' E 139°46'0 0.1
2014-Oct-11 05:33N 35°31' E 139°46'4 3.9
2014-Oct-11 04:34N 35°27' E 139°45'6 6.3
2014-Oct-11 03:34N 35°21' E 139°45'1211.5
2014-Oct-11 02:33N 35°09' E 139°46'  

Dump ship's entire track history